Time;durP1;ratioP1;P1;durP2;ratioP2;P2;SDS_P1;SDS_P2;PMS_P1;PMS_P2;Temp;Humidity;BMP_temperature;BMP_pressure;BME280_temperature;BME280_humidity;BME280_pressure;Samples;Min_cycle;Max_cycle;Signal;HPM_P1;HPM_P2
2021/03/07 00:00:45;;;;;;;69.50;25.50;;;-2.60;99.90;;;;;;4449421;28;660404;-54
2021/03/07 00:03:32;;;;;;;64.27;25.90;;;-2.40;99.90;;;;;;4446637;28;658940;-55
2021/03/07 00:06:20;;;;;;;67.87;26.97;;;-2.50;99.90;;;;;;4453330;28;658038;-51
2021/03/07 00:09:07;;;;;;;66.97;21.53;;;-2.50;99.90;;;;;;4432491;28;659560;-57
2021/03/07 00:11:54;;;;;;;69.83;26.47;;;-2.60;99.90;;;;;;4453392;28;658205;-55
2021/03/07 00:14:41;;;;;;;68.07;25.67;;;-2.70;99.90;;;;;;4449215;28;659003;-53
2021/03/07 00:17:28;;;;;;;62.25;24.20;;;-2.60;99.90;;;;;;4429448;28;658656;-54
2021/03/07 00:20:16;;;;;;;75.67;24.30;;;-2.70;99.90;;;;;;4449013;28;660019;-55
2021/03/07 00:23:04;;;;;;;66.70;24.00;;;-2.70;99.90;;;;;;4428498;28;658457;-54
2021/03/07 00:25:51;;;;;;;69.15;24.52;;;-2.70;99.90;;;;;;4449879;28;659470;-53
2021/03/07 00:28:38;;;;;;;62.53;23.43;;;-2.70;99.90;;;;;;4430650;28;658378;-53
2021/03/07 00:31:25;;;;;;;63.60;23.83;;;-2.70;99.90;;;;;;4448752;28;660210;-53
2021/03/07 00:34:15;;;;;;;58.97;22.87;;;-2.70;99.90;;;;;;4431350;28;660011;-57
2021/03/07 00:37:02;;;;;;;59.47;22.77;;;-2.50;99.90;;;;;;4435094;28;658615;-56
2021/03/07 00:39:50;;;;;;;42.45;14.80;;;-2.60;99.90;;;;;;4452766;28;659200;-53
2021/03/07 00:42:39;;;;;;;58.80;22.73;;;-2.60;99.90;;;;;;4429911;28;660150;-57
2021/03/07 00:45:26;;;;;;;60.30;22.27;;;-2.50;99.90;;;;;;4448101;28;659965;-51
2021/03/07 00:48:13;;;;;;;62.17;24.00;;;-2.70;99.90;;;;;;4426876;28;658490;-53
2021/03/07 00:51:00;;;;;;;59.17;23.17;;;-2.70;99.90;;;;;;4448668;28;659359;-54
2021/03/07 00:53:48;;;;;;;56.07;21.87;;;-2.80;99.90;;;;;;4429604;28;658646;-52
2021/03/07 00:56:36;;;;;;;53.75;22.02;;;-2.90;99.90;;;;;;4449720;28;659472;-52
2021/03/07 00:59:23;;;;;;;60.77;21.37;;;-2.90;99.90;;;;;;4429052;28;658528;-55
2021/03/07 01:02:10;;;;;;;49.90;19.47;;;-2.70;99.90;;;;;;4448324;28;660613;-55
2021/03/07 01:04:57;;;;;;;60.33;21.00;;;-2.80;99.90;;;;;;4443708;28;659224;-56
2021/03/07 01:07:44;;;;;;;62.40;21.87;;;-2.80;99.90;;;;;;4452075;28;658363;-52
2021/03/07 01:10:34;;;;;;;55.85;20.45;;;-2.90;99.90;;;;;;4447898;28;659076;-53
2021/03/07 01:13:22;;;;;;;56.77;20.87;;;-2.60;99.90;;;;;;4425247;28;659151;-50
2021/03/07 01:16:09;;;;;;;54.97;21.47;;;-2.50;99.90;;;;;;4425163;28;659201;-53
2021/03/07 01:18:56;;;;;;;46.97;16.17;;;-2.60;99.90;;;;;;4447866;28;658476;-55
2021/03/07 01:21:43;;;;;;;62.13;22.60;;;-2.60;99.90;;;;;;4428584;28;658596;-56
2021/03/07 01:24:30;;;;;;;50.67;21.47;;;-2.60;99.90;;;;;;4449807;28;660252;-54
2021/03/07 01:27:17;;;;;;;55.47;21.98;;;-2.40;99.90;;;;;;4433608;28;658938;-57
2021/03/07 01:30:07;;;;;;;55.90;20.77;;;-2.30;99.90;;;;;;4451874;28;657908;-52
2021/03/07 01:32:54;;;;;;;51.13;21.90;;;-2.40;99.90;;;;;;4429186;28;660010;-51
2021/03/07 01:35:41;;;;;;;52.50;21.93;;;-2.50;99.90;;;;;;4447848;28;658350;-52
2021/03/07 01:38:28;;;;;;;48.43;19.23;;;-2.30;99.90;;;;;;4428661;28;659791;-52
2021/03/07 01:41:15;;;;;;;52.30;21.53;;;-2.40;99.90;;;;;;4451645;28;660135;-51
2021/03/07 01:44:02;;;;;;;56.23;21.63;;;-2.60;99.90;;;;;;4436498;28;659834;-57
2021/03/07 01:46:50;;;;;;;59.35;23.65;;;-2.70;99.90;;;;;;4452087;28;659099;-55
2021/03/07 01:49:38;;;;;;;55.27;23.50;;;-2.80;99.90;;;;;;4428628;28;660020;-55
2021/03/07 01:52:25;;;;;;;61.60;22.23;;;-2.90;99.90;;;;;;4446759;28;659497;-52
2021/03/07 01:55:13;;;;;;;56.97;23.27;;;-2.70;99.90;;;;;;4428810;28;658660;-53
2021/03/07 01:58:02;;;;;;;50.10;21.93;;;-2.70;99.90;;;;;;4447316;28;659746;-50
2021/03/07 02:00:49;;;;;;;55.65;22.08;;;-2.70;99.90;;;;;;4428453;28;660425;-52
2021/03/07 02:03:37;;;;;;;52.95;21.75;;;-2.70;99.90;;;;;;4447115;28;659801;-53
2021/03/07 02:06:24;;;;;;;53.70;21.13;;;-2.80;99.90;;;;;;4428656;28;659665;-53
2021/03/07 02:09:11;;;;;;;54.47;22.03;;;-2.90;99.90;;;;;;4447136;28;659701;-54
2021/03/07 02:11:58;;;;;;;56.33;24.17;;;-3.00;99.90;;;;;;4427725;28;658448;-51
2021/03/07 02:14:45;;;;;;;43.23;16.93;;;-3.00;99.90;;;;;;4451022;28;660250;-49
2021/03/07 02:17:32;;;;;;;41.87;18.77;;;-2.80;99.90;;;;;;4439634;28;658571;-55
2021/03/07 02:20:21;;;;;;;48.80;19.83;;;-2.70;99.90;;;;;;4451528;28;658262;-51
2021/03/07 02:23:13;;;;;;;54.07;20.00;;;-2.80;99.90;;;;;;4428755;28;659597;-55
2021/03/07 02:26:01;;;;;;;40.63;17.23;;;-2.80;99.90;;;;;;4424705;28;659568;-51
2021/03/07 02:28:48;;;;;;;48.87;19.53;;;-2.80;99.90;;;;;;4428011;28;658525;-51
2021/03/07 02:31:37;;;;;;;52.60;19.17;;;-2.90;99.90;;;;;;4446792;28;660118;-52
2021/03/07 02:34:28;;;;;;;48.63;19.73;;;-2.80;99.90;;;;;;4420950;28;658662;-53
2021/03/07 02:37:15;;;;;;;40.43;17.53;;;-2.90;99.90;;;;;;4423978;28;660759;-52
2021/03/07 02:40:03;;;;;;;43.93;17.50;;;-3.00;99.90;;;;;;4429501;28;659952;-56
2021/03/07 02:42:51;;;;;;;45.27;18.20;;;-3.00;99.90;;;;;;4454820;28;659156;-54
2021/03/07 02:45:38;;;;;;;41.63;17.40;;;-3.10;99.90;;;;;;4431903;28;659285;-52
2021/03/07 02:48:25;;;;;;;43.03;16.60;;;-3.10;99.90;;;;;;4450146;28;659529;-54
2021/03/07 02:51:12;;;;;;;45.50;17.20;;;-3.10;99.90;;;;;;4444941;28;658769;-57
2021/03/07 02:54:00;;;;;;;33.47;14.48;;;-3.10;99.90;;;;;;4454761;28;658316;-54
2021/03/07 02:56:49;;;;;;;40.37;16.87;;;-3.10;99.90;;;;;;4444395;28;658927;-56
2021/03/07 02:59:37;;;;;;;38.90;15.57;;;-2.80;99.90;;;;;;4449963;28;659664;-54
2021/03/07 03:02:24;;;;;;;41.80;15.33;;;-2.80;99.90;;;;;;4431523;28;659312;-51
2021/03/07 03:05:11;;;;;;;37.37;14.50;;;-2.90;99.90;;;;;;4450457;28;660494;-53
2021/03/07 03:07:58;;;;;;;37.53;16.07;;;-3.00;99.90;;;;;;4431414;28;659870;-54
2021/03/07 03:10:45;;;;;;;34.67;14.37;;;-3.00;99.90;;;;;;4450356;28;659681;-52
2021/03/07 03:13:34;;;;;;;37.07;15.60;;;-3.00;99.90;;;;;;4431800;28;658908;-55
2021/03/07 03:16:24;;;;;;;44.37;15.50;;;-3.00;99.90;;;;;;4449412;28;659940;-54
2021/03/07 03:19:11;;;;;;;40.43;16.40;;;-3.10;99.90;;;;;;4431676;28;659404;-53
2021/03/07 03:21:58;;;;;;;38.77;16.77;;;-3.20;99.90;;;;;;4431514;28;659617;-55
2021/03/07 03:24:45;;;;;;;39.27;16.53;;;-3.20;99.90;;;;;;4451153;28;659570;-56
2021/03/07 03:27:33;;;;;;;36.97;16.92;;;-3.30;99.90;;;;;;4430719;28;660225;-57
2021/03/07 03:30:21;;;;;;;39.03;16.03;;;-3.30;99.90;;;;;;4450224;28;660084;-52
2021/03/07 03:33:09;;;;;;;42.17;17.07;;;-3.30;99.90;;;;;;4430466;28;658766;-54
2021/03/07 03:35:56;;;;;;;36.33;15.38;;;-3.10;99.90;;;;;;4449740;28;658623;-55
2021/03/07 03:38:46;;;;;;;37.70;16.27;;;-3.20;99.90;;;;;;4430802;28;658617;-53
2021/03/07 03:41:34;;;;;;;37.70;15.70;;;-3.30;99.90;;;;;;4430920;28;659232;-56
2021/03/07 03:44:23;;;;;;;41.30;16.13;;;-3.30;99.90;;;;;;4449846;28;658845;-52
2021/03/07 03:47:11;;;;;;;44.90;16.07;;;-3.40;99.90;;;;;;4426298;28;660078;-54
2021/03/07 03:49:58;;;;;;;38.70;16.20;;;-3.40;99.90;;;;;;4430473;28;659338;-54
2021/03/07 03:52:45;;;;;;;40.30;16.23;;;-3.30;99.90;;;;;;4448268;28;658890;-53
2021/03/07 03:55:32;;;;;;;36.47;16.83;;;-3.40;99.90;;;;;;4430382;28;659073;-57
2021/03/07 03:58:21;;;;;;;43.97;16.43;;;-3.40;99.90;;;;;;4453418;28;658409;-54
2021/03/07 04:01:09;;;;;;;39.05;16.20;;;-3.50;99.90;;;;;;4430681;28;658891;-50
2021/03/07 04:03:56;;;;;;;42.83;15.90;;;-3.30;99.90;;;;;;4449098;28;659410;-53
2021/03/07 04:06:43;;;;;;;39.07;15.77;;;-3.00;99.90;;;;;;4430124;28;658724;-57
2021/03/07 04:09:30;;;;;;;36.93;15.43;;;-3.10;99.90;;;;;;4448895;28;660055;-52
2021/03/07 04:12:18;;;;;;;39.90;16.23;;;-3.10;99.90;;;;;;4431142;28;659886;-55
2021/03/07 04:15:06;;;;;;;39.63;16.37;;;-3.00;99.90;;;;;;4449547;28;659681;-51
2021/03/07 04:17:53;;;;;;;44.30;17.90;;;-3.00;99.90;;;;;;4430167;28;658523;-56
2021/03/07 04:20:40;;;;;;;41.03;16.17;;;-3.10;99.90;;;;;;4448596;28;660829;-52
2021/03/07 04:23:28;;;;;;;38.93;16.20;;;-2.90;99.90;;;;;;4445342;28;659063;-58
2021/03/07 04:26:15;;;;;;;40.90;15.50;;;-2.80;99.90;;;;;;4452035;28;659010;-56
2021/03/07 04:29:02;;;;;;;39.45;17.55;;;-2.90;99.90;;;;;;4434857;28;658767;-56
2021/03/07 04:31:49;;;;;;;42.97;17.77;;;-3.00;99.90;;;;;;4452718;28;659293;-55
2021/03/07 04:34:36;;;;;;;42.33;17.93;;;-3.10;99.90;;;;;;4449135;28;658876;-53
2021/03/07 04:37:23;;;;;;;40.60;18.40;;;-3.20;99.90;;;;;;4430064;28;658949;-53
2021/03/07 04:40:12;;;;;;;34.42;15.48;;;-3.10;99.90;;;;;;4448682;28;659199;-53
2021/03/07 04:42:59;;;;;;;43.63;17.20;;;-3.00;99.90;;;;;;4425887;28;659158;-55
2021/03/07 04:45:47;;;;;;;44.00;18.70;;;-3.10;99.90;;;;;;4448440;28;658432;-53
2021/03/07 04:48:33;;;;;;;45.70;19.43;;;-3.20;99.90;;;;;;4429433;28;659240;-54
2021/03/07 04:51:21;;;;;;;42.30;17.30;;;-3.30;99.90;;;;;;4448036;28;659975;-54
2021/03/07 04:54:08;;;;;;;39.17;17.67;;;-3.30;99.90;;;;;;4429665;28;658587;-53
2021/03/07 04:56:56;;;;;;;34.63;16.63;;;-3.10;99.90;;;;;;4448184;28;660083;-55
2021/03/07 04:59:43;;;;;;;46.97;18.50;;;-3.10;99.90;;;;;;4428900;28;659396;-55
2021/03/07 05:02:30;;;;;;;29.20;13.83;;;-3.20;99.90;;;;;;4447875;28;659314;-54
2021/03/07 05:05:17;;;;;;;40.00;17.97;;;-3.00;99.90;;;;;;4448025;28;658808;-56
2021/03/07 05:08:06;;;;;;;42.50;17.10;;;-3.10;99.90;;;;;;4425307;28;660176;-56
2021/03/07 05:10:53;;;;;;;40.17;18.58;;;-3.00;99.90;;;;;;4429620;28;658634;-53
2021/03/07 05:13:41;;;;;;;36.47;17.07;;;-3.10;99.90;;;;;;4448891;28;659110;-55
2021/03/07 05:16:29;;;;;;;27.87;11.73;;;-3.10;99.90;;;;;;4425872;28;659815;-52
2021/03/07 05:19:16;;;;;;;41.40;17.40;;;-3.10;99.90;;;;;;4447634;28;658672;-55
2021/03/07 05:22:03;;;;;;;39.77;17.53;;;-3.10;99.90;;;;;;4428888;28;658901;-55
2021/03/07 05:24:50;;;;;;;30.80;14.57;;;-3.20;99.90;;;;;;4447704;28;660460;-54
2021/03/07 05:27:37;;;;;;;35.73;15.80;;;-3.20;99.90;;;;;;4439065;28;659267;-58
2021/03/07 05:30:26;;;;;;;25.73;10.43;;;-3.20;99.90;;;;;;4444738;28;658368;-53
2021/03/07 05:33:16;;;;;;;41.87;16.77;;;-3.00;99.90;;;;;;4428500;28;658595;-51
2021/03/07 05:36:03;;;;;;;26.43;11.70;;;-2.90;99.90;;;;;;4429356;28;659433;-55
2021/03/07 05:38:50;;;;;;;26.30;9.50;;;-2.80;99.90;;;;;;4450510;28;660526;-55
2021/03/07 05:41:38;;;;;;;33.83;14.20;;;-2.70;99.90;;;;;;4441073;28;657470;-56
2021/03/07 05:44:25;;;;;;;23.43;9.60;;;-2.80;99.90;;;;;;4440093;28;660220;-54
2021/03/07 05:47:13;;;;;;;31.53;15.47;;;-2.70;99.90;;;;;;4447253;28;658273;-57
2021/03/07 05:50:00;;;;;;;34.97;14.83;;;-2.60;99.90;;;;;;4447571;28;659640;-56
2021/03/07 05:52:48;;;;;;;28.20;12.90;;;-2.70;99.90;;;;;;4428042;28;658374;-56
2021/03/07 05:55:35;;;;;;;34.60;15.87;;;-2.70;99.90;;;;;;4447309;28;660288;-52
2021/03/07 05:58:22;;;;;;;32.07;13.83;;;-2.60;99.90;;;;;;4440447;28;659012;-58
2021/03/07 06:01:09;;;;;;;30.45;15.25;;;-2.80;99.90;;;;;;4451301;28;658465;-50
2021/03/07 06:04:02;;;;;;;22.37;11.87;;;-2.70;99.90;;;;;;4451219;28;658816;-55
2021/03/07 06:06:50;;;;;;;35.63;14.63;;;-2.40;99.90;;;;;;4401420;28;659328;-54
2021/03/07 06:09:37;;;;;;;22.00;10.30;;;-2.40;99.90;;;;;;4443116;28;658643;-58
2021/03/07 06:12:24;;;;;;;28.60;13.80;;;-2.20;99.90;;;;;;4444510;28;658287;-51
2021/03/07 06:15:12;;;;;;;31.17;14.68;;;-2.30;99.90;;;;;;4447301;28;658656;-55
2021/03/07 06:17:59;;;;;;;15.47;8.37;;;-2.30;99.90;;;;;;4425119;28;660274;-53
2021/03/07 06:20:47;;;;;;;31.77;14.97;;;-2.30;99.90;;;;;;4447989;28;657517;-55
2021/03/07 06:23:35;;;;;;;33.17;14.77;;;-2.20;99.90;;;;;;4424286;28;659676;-52
2021/03/07 06:26:22;;;;;;;15.07;6.60;;;-2.10;99.90;;;;;;4420809;28;658716;-57
2021/03/07 06:29:10;;;;;;;16.70;6.68;;;-1.80;99.90;;;;;;4452754;28;657303;-53
2021/03/07 06:31:57;;;;;;;33.77;12.57;;;-1.70;99.90;;;;;;4437363;28;657787;-58
2021/03/07 06:34:45;;;;;;;34.10;14.10;;;-1.80;99.90;;;;;;4446859;28;659120;-53
2021/03/07 06:37:33;;;;;;;25.92;10.82;;;-1.60;99.90;;;;;;4433219;28;658597;-56
2021/03/07 06:40:25;;;;;;;22.43;8.23;;;-1.40;99.90;;;;;;4447508;28;659805;-54
2021/03/07 06:43:19;;;;;;;34.70;14.23;;;-1.30;99.90;;;;;;4408625;28;658333;-56
2021/03/07 06:46:06;;;;;;;30.63;12.17;;;-1.30;99.90;;;;;;4424045;28;658861;-55
2021/03/07 06:48:53;;;;;;;18.03;8.50;;;-1.20;99.90;;;;;;4425152;28;658849;-55
2021/03/07 06:51:40;;;;;;;27.97;12.13;;;-1.10;99.90;;;;;;4448449;28;658812;-56
2021/03/07 06:54:29;;;;;;;42.13;11.90;;;-1.10;99.90;;;;;;4427822;28;659791;-58
2021/03/07 06:57:19;;;;;;;17.53;7.57;;;-1.00;99.90;;;;;;4446804;28;658613;-56
2021/03/07 07:00:07;;;;;;;15.98;5.75;;;-0.90;99.90;;;;;;4425197;28;658760;-55
2021/03/07 07:03:11;;;;;;;28.83;12.63;;;-0.80;99.90;;;;;;4429213;28;658365;-52
2021/03/07 07:05:58;;;;;;;21.90;9.77;;;-0.80;99.90;;;;;;4403096;28;658526;-57
2021/03/07 07:08:45;;;;;;;26.23;11.40;;;-0.70;99.90;;;;;;4448028;28;659344;-55
2021/03/07 07:11:41;;;;;;;32.43;13.83;;;-0.60;99.90;;;;;;4428089;28;659056;-58
2021/03/07 07:14:35;;;;;;;26.35;10.23;;;-0.60;99.90;;;;;;4402101;28;659569;-53
2021/03/07 07:17:22;;;;;;;27.87;12.83;;;-0.50;99.90;;;;;;4419242;28;659015;-57
2021/03/07 07:20:10;;;;;;;31.57;14.07;;;-0.50;99.90;;;;;;4451399;28;658735;-55
2021/03/07 07:22:57;;;;;;;28.03;10.37;;;-0.50;99.90;;;;;;4427674;28;658830;-56
2021/03/07 07:25:44;;;;;;;29.03;12.37;;;-0.30;99.90;;;;;;4447381;28;660141;-54
2021/03/07 07:28:33;;;;;;;24.23;10.87;;;-0.30;99.90;;;;;;4449672;28;658536;-51
2021/03/07 07:31:23;;;;;;;23.00;11.53;;;-0.20;99.90;;;;;;4427303;28;659231;-55
2021/03/07 07:34:11;;;;;;;20.50;9.10;;;-0.20;99.90;;;;;;4426724;28;659995;-52
2021/03/07 07:37:00;;;;;;;23.35;9.40;;;-0.20;99.90;;;;;;4432107;28;657360;-54
2021/03/07 07:39:50;;;;;;;22.23;10.40;;;-0.20;99.90;;;;;;4431836;28;657948;-53
2021/03/07 07:42:38;;;;;;;23.43;9.43;;;-0.10;99.90;;;;;;4439828;28;659409;-57
2021/03/07 07:45:26;;;;;;;22.20;10.40;;;-0.10;99.90;;;;;;4443447;28;658483;-55
2021/03/07 07:48:13;;;;;;;27.60;11.77;;;0.10;99.90;;;;;;4430283;28;659315;-54
2021/03/07 07:51:00;;;;;;;31.80;13.83;;;0.10;99.90;;;;;;4454760;28;658118;-56
2021/03/07 07:53:47;;;;;;;22.10;9.80;;;0.10;99.90;;;;;;4441610;28;658322;-57
2021/03/07 07:56:39;;;;;;;24.10;10.17;;;0.30;99.90;;;;;;4455818;28;656604;-54
2021/03/07 07:59:50;;;;;;;24.93;12.37;;;0.50;99.90;;;;;;4424630;28;658741;-57
2021/03/07 08:03:06;;;;;;;35.90;13.90;;;0.70;99.90;;;;;;4409101;28;658592;-58
2021/03/07 08:05:53;;;;;;;26.03;11.40;;;0.80;99.90;;;;;;4377634;28;657614;-52
2021/03/07 08:08:41;;;;;;;23.03;9.63;;;0.80;99.90;;;;;;4400393;28;658252;-56
2021/03/07 08:11:29;;;;;;;26.97;11.07;;;0.80;99.90;;;;;;4372504;28;656498;-53
2021/03/07 08:14:19;;;;;;;27.13;11.07;;;0.80;99.90;;;;;;4395601;28;657742;-53
2021/03/07 08:17:06;;;;;;;26.63;11.77;;;0.90;99.90;;;;;;4373423;28;658629;-54
2021/03/07 08:19:54;;;;;;;21.73;10.17;;;1.10;99.90;;;;;;4377439;28;658669;-54
2021/03/07 08:22:59;;;;;;;22.57;10.30;;;1.30;99.90;;;;;;4395414;28;657883;-54
2021/03/07 08:25:59;;;;;;;18.73;8.97;;;1.50;99.90;;;;;;4368869;28;658021;-56
2021/03/07 08:28:46;;;;;;;19.30;9.10;;;1.60;99.90;;;;;;4374364;28;656636;-55
2021/03/07 08:31:36;;;;;;;20.63;9.67;;;1.90;99.90;;;;;;4377716;28;656547;-56
2021/03/07 08:34:24;;;;;;;26.83;11.73;;;1.70;99.90;;;;;;4377656;28;656562;-56
2021/03/07 08:37:16;;;;;;;16.87;8.00;;;1.80;99.90;;;;;;4394917;28;658314;-53
2021/03/07 08:40:33;;;;;;;24.80;10.20;;;2.10;99.90;;;;;;4374320;28;657098;-55
2021/03/07 08:43:55;;;;;;;17.17;6.73;;;2.10;99.90;;;;;;4321210;28;658616;-53
2021/03/07 08:46:46;;;;;;;21.73;9.60;;;2.00;99.90;;;;;;4374207;28;656574;-58
2021/03/07 08:49:33;;;;;;;18.90;9.13;;;2.30;99.90;;;;;;4360618;28;657476;-57
2021/03/07 08:52:21;;;;;;;19.50;9.50;;;2.30;99.90;;;;;;4362179;28;658599;-54
2021/03/07 08:55:09;;;;;;;21.50;9.53;;;2.60;99.90;;;;;;4359889;28;656614;-54
2021/03/07 08:57:56;;;;;;;21.17;9.80;;;2.80;99.90;;;;;;4377842;28;657387;-55
2021/03/07 09:00:44;;;;;;;15.47;6.00;;;2.70;99.90;;;;;;4354185;28;657555;-54
2021/03/07 09:03:31;;;;;;;17.30;6.83;;;3.10;99.90;;;;;;4383089;28;657911;-52
2021/03/07 09:06:18;;;;;;;23.20;9.90;;;2.90;99.90;;;;;;4378312;28;656303;-55
2021/03/07 09:09:08;;;;;;;17.17;8.43;;;3.30;99.90;;;;;;4396698;28;657148;-53
2021/03/07 09:11:59;;;;;;;17.27;8.50;;;3.40;99.90;;;;;;4373762;28;658384;-55
2021/03/07 09:14:46;;;;;;;15.23;6.90;;;3.50;99.90;;;;;;4368489;28;657581;-56
2021/03/07 09:17:33;;;;;;;17.97;9.07;;;4.00;99.90;;;;;;4377897;28;656593;-58
2021/03/07 09:20:21;;;;;;;18.40;7.40;;;4.00;99.90;;;;;;4416904;28;657722;-54
2021/03/07 09:23:23;;;;;;;14.17;7.53;;;4.00;99.90;;;;;;4431546;28;656608;-56
2021/03/07 09:26:12;;;;;;;12.23;5.97;;;3.90;99.90;;;;;;4427909;28;658141;-53
2021/03/07 09:28:59;;;;;;;13.53;6.70;;;3.90;99.90;;;;;;4431546;28;657312;-54
2021/03/07 09:31:46;;;;;;;17.57;8.60;;;3.70;99.90;;;;;;4445242;28;656774;-54
2021/03/07 09:34:33;;;;;;;16.17;7.17;;;3.60;99.90;;;;;;4431322;28;656218;-55
2021/03/07 09:37:20;;;;;;;17.80;8.17;;;3.70;99.90;;;;;;4453451;28;658064;-53
2021/03/07 09:40:11;;;;;;;10.35;5.55;;;3.60;99.70;;;;;;4430910;28;656533;-57
2021/03/07 09:43:01;;;;;;;12.33;6.10;;;3.50;99.90;;;;;;4431080;28;657170;-56
2021/03/07 09:45:49;;;;;;;14.37;6.93;;;3.80;99.90;;;;;;4427143;28;656602;-55
2021/03/07 09:48:37;;;;;;;15.97;8.10;;;4.50;99.90;;;;;;4450128;28;656956;-57
2021/03/07 09:51:24;;;;;;;15.47;7.50;;;4.70;99.50;;;;;;4430685;28;657944;-51
2021/03/07 09:54:12;;;;;;;12.97;6.67;;;4.60;98.40;;;;;;4449393;28;656352;-55
2021/03/07 09:56:59;;;;;;;16.38;8.68;;;4.60;99.10;;;;;;4431645;28;657593;-52
2021/03/07 09:59:50;;;;;;;14.20;6.90;;;4.40;99.90;;;;;;4450666;28;657709;-53
2021/03/07 10:02:37;;;;;;;16.43;7.80;;;4.30;98.00;;;;;;4448611;28;656706;-57
2021/03/07 10:05:24;;;;;;;14.57;7.27;;;4.20;98.20;;;;;;4424567;28;657849;-55
2021/03/07 10:08:23;;;;;;;15.73;8.07;;;4.10;96.80;;;;;;4432042;28;657572;-55
2021/03/07 10:11:11;;;;;;;13.37;7.20;;;4.40;97.80;;;;;;4408483;28;657548;-54
2021/03/07 10:14:00;;;;;;;14.17;7.37;;;4.40;95.10;;;;;;4412382;28;656790;-57
2021/03/07 10:16:50;;;;;;;9.93;5.03;;;4.60;95.10;;;;;;4417438;28;657216;-58
2021/03/07 10:19:38;;;;;;;13.07;6.43;;;4.70;93.90;;;;;;4407694;28;655867;-56
2021/03/07 10:22:25;;;;;;;16.70;6.83;;;4.50;94.10;;;;;;4426891;28;657490;-51
2021/03/07 10:25:26;;;;;;;18.80;8.30;;;4.60;94.60;;;;;;4420543;28;657158;-58
2021/03/07 10:28:19;;;;;;;15.10;8.23;;;5.00;94.80;;;;;;4386217;28;657055;-55
2021/03/07 10:31:07;;;;;;;17.77;7.77;;;5.20;94.90;;;;;;4408830;28;657618;-54
2021/03/07 10:33:55;;;;;;;16.80;7.43;;;4.90;93.10;;;;;;4388040;28;657792;-55
2021/03/07 10:36:42;;;;;;;12.57;6.17;;;5.40;93.10;;;;;;4412828;28;656492;-54
2021/03/07 10:39:29;;;;;;;17.23;7.87;;;5.10;91.90;;;;;;4431700;28;657666;-56
2021/03/07 10:42:16;;;;;;;19.67;8.93;;;5.60;93.90;;;;;;4431529;28;656439;-52
2021/03/07 10:45:27;;;;;;;19.80;8.43;;;5.30;93.60;;;;;;4411376;28;656628;-55
2021/03/07 10:48:15;;;;;;;18.70;8.70;;;5.50;92.60;;;;;;4342255;28;656393;-53
2021/03/07 10:51:03;;;;;;;17.17;7.83;;;5.70;92.90;;;;;;4343963;28;657783;-56
2021/03/07 10:53:50;;;;;;;18.23;7.03;;;5.80;90.60;;;;;;4360745;28;657030;-54
2021/03/07 10:56:38;;;;;;;22.83;8.93;;;5.70;88.30;;;;;;4342276;28;656293;-56
2021/03/07 10:59:25;;;;;;;23.87;8.97;;;5.30;91.00;;;;;;4344215;28;657301;-56
2021/03/07 11:02:12;;;;;;;16.83;8.17;;;5.20;91.10;;;;;;4344937;28;656825;-55
2021/03/07 11:04:59;;;;;;;16.50;6.73;;;5.70;90.00;;;;;;4377464;28;657440;-55
2021/03/07 11:07:47;;;;;;;19.43;9.70;;;5.70;89.50;;;;;;4380711;28;656213;-56
2021/03/07 11:10:35;;;;;;;16.10;8.33;;;5.80;90.60;;;;;;4358574;28;656989;-52
2021/03/07 11:13:22;;;;;;;15.53;7.60;;;5.50;85.90;;;;;;4376050;28;657033;-57
2021/03/07 11:16:09;;;;;;;19.33;8.93;;;5.30;88.50;;;;;;4384823;28;657392;-53
2021/03/07 11:18:56;;;;;;;15.37;7.40;;;5.20;90.10;;;;;;4380581;28;656891;-54
2021/03/07 11:21:43;;;;;;;19.67;7.90;;;5.60;89.30;;;;;;4362370;28;656185;-53
2021/03/07 11:24:31;;;;;;;23.33;10.17;;;5.40;87.30;;;;;;4380795;28;657748;-55
2021/03/07 11:27:18;;;;;;;17.42;8.02;;;5.30;90.20;;;;;;4366830;28;657563;-55
2021/03/07 11:30:07;;;;;;;16.02;7.38;;;4.90;85.20;;;;;;4449483;28;657045;-53
2021/03/07 11:32:54;;;;;;;19.37;8.13;;;5.10;85.10;;;;;;4427206;28;657975;-54
2021/03/07 11:35:41;;;;;;;17.10;7.90;;;5.10;85.00;;;;;;4448702;28;656901;-54
2021/03/07 11:38:28;;;;;;;16.30;7.87;;;5.00;85.30;;;;;;4425620;28;657403;-54
2021/03/07 11:41:16;;;;;;;14.18;6.50;;;4.90;86.80;;;;;;4451450;28;657523;-53
2021/03/07 11:44:04;;;;;;;15.93;7.97;;;5.30;83.50;;;;;;4432496;28;657179;-54
2021/03/07 11:46:52;;;;;;;21.27;8.93;;;5.50;84.30;;;;;;4450823;28;657626;-57
2021/03/07 11:49:40;;;;;;;17.90;8.10;;;5.80;85.10;;;;;;4428025;28;657573;-51
2021/03/07 11:52:27;;;;;;;13.57;6.43;;;6.20;84.40;;;;;;4432362;28;656613;-56
2021/03/07 11:55:15;;;;;;;17.90;8.37;;;6.60;80.80;;;;;;4455656;28;657551;-57
2021/03/07 11:58:03;;;;;;;12.97;5.90;;;6.60;81.80;;;;;;4450677;28;657798;-56
2021/03/07 12:00:50;;;;;;;15.23;7.43;;;6.60;80.10;;;;;;4428517;28;658058;-52
2021/03/07 12:03:37;;;;;;;20.57;8.20;;;6.50;77.50;;;;;;4435885;28;656467;-58
2021/03/07 12:06:24;;;;;;;16.37;6.90;;;6.20;77.00;;;;;;4456581;28;656743;-54
2021/03/07 12:09:11;;;;;;;13.23;5.17;;;6.70;77.30;;;;;;4451788;28;656561;-54
2021/03/07 12:11:58;;;;;;;16.10;7.27;;;6.50;75.50;;;;;;4427835;28;658665;-56
2021/03/07 12:14:46;;;;;;;21.10;6.60;;;6.80;74.90;;;;;;4451981;28;657360;-55
2021/03/07 12:17:33;;;;;;;14.70;7.17;;;7.00;73.90;;;;;;4432406;28;657044;-52
2021/03/07 12:20:21;;;;;;;16.00;8.67;;;6.60;75.70;;;;;;4451137;28;658084;-55
2021/03/07 12:23:08;;;;;;;18.80;8.33;;;6.20;76.50;;;;;;4432956;28;656473;-54
2021/03/07 12:25:55;;;;;;;16.43;6.97;;;6.70;74.20;;;;;;4451876;28;658119;-54
2021/03/07 12:28:42;;;;;;;15.27;7.67;;;6.60;70.80;;;;;;4451612;28;656389;-53
2021/03/07 12:31:29;;;;;;;12.03;6.40;;;6.30;73.30;;;;;;4432134;28;657541;-55
2021/03/07 12:34:16;;;;;;;13.80;6.20;;;6.80;78.80;;;;;;4451037;28;656522;-56
2021/03/07 12:37:04;;;;;;;18.40;8.70;;;7.20;71.80;;;;;;4428611;28;658677;-53
2021/03/07 12:39:51;;;;;;;15.83;7.43;;;7.90;71.30;;;;;;4450943;28;656754;-55
2021/03/07 12:42:38;;;;;;;11.33;6.63;;;8.40;66.00;;;;;;4432221;28;657550;-57
2021/03/07 12:45:25;;;;;;;16.30;7.93;;;8.10;66.60;;;;;;4451089;28;657179;-53
2021/03/07 12:48:13;;;;;;;13.90;6.67;;;8.90;66.60;;;;;;4440276;28;657365;-55
2021/03/07 12:51:01;;;;;;;8.70;4.20;;;8.60;63.80;;;;;;4451103;28;658293;-55
2021/03/07 12:53:48;;;;;;;12.10;6.73;;;8.10;63.30;;;;;;4433702;28;656760;-54
2021/03/07 12:56:35;;;;;;;12.67;5.90;;;7.90;63.20;;;;;;4445379;28;657807;-52
2021/03/07 12:59:22;;;;;;;14.33;6.37;;;8.50;62.40;;;;;;4432494;28;657955;-58
2021/03/07 13:02:09;;;;;;;15.83;7.00;;;8.90;63.50;;;;;;4454925;28;657185;-55
2021/03/07 13:04:57;;;;;;;19.83;6.43;;;8.90;63.30;;;;;;4450152;28;656375;-50
2021/03/07 13:07:46;;;;;;;13.60;6.83;;;7.60;65.20;;;;;;4427989;28;656858;-54
2021/03/07 13:10:34;;;;;;;11.50;5.53;;;7.40;62.60;;;;;;4427189;28;657865;-56
2021/03/07 13:13:21;;;;;;;16.63;6.37;;;8.00;62.00;;;;;;4449136;28;656919;-55
2021/03/07 13:16:08;;;;;;;19.07;7.00;;;7.80;63.10;;;;;;4430240;28;656617;-54
2021/03/07 13:18:55;;;;;;;18.40;7.60;;;8.80;61.80;;;;;;4449456;28;657410;-52
2021/03/07 13:21:43;;;;;;;18.17;7.37;;;9.10;60.30;;;;;;4431607;28;656588;-57
2021/03/07 13:24:30;;;;;;;11.20;5.00;;;9.10;61.40;;;;;;4450078;28;657539;-54
2021/03/07 13:27:17;;;;;;;12.30;6.07;;;8.80;59.80;;;;;;4431445;28;657910;-55
2021/03/07 13:30:05;;;;;;;11.60;5.93;;;8.80;59.10;;;;;;4454492;28;657421;-56
2021/03/07 13:32:54;;;;;;;16.50;7.10;;;9.90;57.70;;;;;;4430730;28;657164;-55
2021/03/07 13:35:41;;;;;;;13.30;6.07;;;10.60;56.20;;;;;;4449284;28;656477;-57
2021/03/07 13:38:30;;;;;;;14.02;5.97;;;11.50;53.30;;;;;;4429279;28;658543;-56
2021/03/07 13:41:17;;;;;;;7.13;4.00;;;9.80;55.90;;;;;;4431682;28;657832;-55
2021/03/07 13:44:05;;;;;;;12.20;5.93;;;9.60;55.10;;;;;;4455235;28;655791;-53
2021/03/07 13:46:52;;;;;;;10.80;4.83;;;9.80;57.60;;;;;;4446636;28;657016;-57
2021/03/07 13:49:39;;;;;;;16.43;6.80;;;9.10;55.30;;;;;;4453525;28;657181;-55
2021/03/07 13:52:26;;;;;;;13.20;6.23;;;9.00;57.40;;;;;;4449088;28;656764;-52
2021/03/07 13:55:14;;;;;;;11.03;5.67;;;9.90;55.20;;;;;;4430989;28;657803;-54
2021/03/07 13:58:01;;;;;;;12.00;5.10;;;9.80;54.70;;;;;;4450182;28;657201;-53
2021/03/07 14:00:49;;;;;;;14.10;6.17;;;9.90;54.60;;;;;;4423619;28;658045;-55
2021/03/07 14:03:41;;;;;;;12.63;6.60;;;10.40;50.50;;;;;;4445483;28;657707;-55
2021/03/07 14:06:28;;;;;;;11.07;4.03;;;10.60;52.90;;;;;;4385023;28;658781;-55
2021/03/07 14:09:16;;;;;;;12.50;6.13;;;11.00;49.50;;;;;;4430910;28;658427;-56
2021/03/07 14:12:04;;;;;;;13.38;6.32;;;10.30;50.00;;;;;;4406040;28;657595;-54